Time;durP1;ratioP1;P1;durP2;ratioP2;P2;SDS_P1;SDS_P2;PMS_P1;PMS_P2;Temp;Humidity;BMP_temperature;BMP_pressure;BME280_temperature;BME280_humidity;BME280_pressure;Samples;Min_cycle;Max_cycle;Signal;HPM_P1;HPM_P2
2022/12/04 00:01:42;;;;;;;0.40;0.30;;;;;;;;;;5107581;28;20490;-61
2022/12/04 00:04:12;;;;;;;1.30;0.70;;;;;;;;;;5108638;28;20038;-60
2022/12/04 00:06:38;;;;;;;0.63;0.50;;;;;;;;;;5108477;28;20081;-60
2022/12/04 00:09:05;;;;;;;1.63;0.50;;;;;;;;;;5105595;28;20028;-60
2022/12/04 00:11:32;;;;;;;0.60;0.33;;;;;;;;;;5103750;28;20076;-60
2022/12/04 00:13:59;;;;;;;0.90;0.60;;;;;;;;;;5103615;28;20453;-62
2022/12/04 00:16:28;;;;;;;0.20;0.20;;;;;;;;;;5103376;28;20027;-60
2022/12/04 00:18:57;;;;;;;1.23;0.80;;;;;;;;;;5103500;28;20028;-61
2022/12/04 00:21:25;;;;;;;0.60;0.50;;;;;;;;;;5104923;28;20111;-61
2022/12/04 00:23:52;;;;;;;1.40;0.70;;;;;;;;;;5094809;28;20600;-61
2022/12/04 00:26:20;;;;;;;0.57;0.47;;;;;;;;;;5094194;28;20111;-61
2022/12/04 00:28:47;;;;;;;1.30;0.87;;;;;;;;;;5095169;28;20028;-61
2022/12/04 00:31:15;;;;;;;1.23;0.83;;;;;;;;;;5086618;28;20028;-61
2022/12/04 00:33:42;;;;;;;1.20;0.77;;;;;;;;;;5089825;28;20085;-61
2022/12/04 00:36:10;;;;;;;0.87;0.47;;;;;;;;;;5089074;28;20379;-61
2022/12/04 00:38:37;;;;;;;3.70;1.00;;;;;;;;;;5088858;28;20024;-61
2022/12/04 00:41:12;;;;;;;0.60;0.47;;;;;;;;;;5070962;28;20534;-62
2022/12/04 00:43:39;;;;;;;1.42;0.55;;;;;;;;;;5075091;28;20537;-61
2022/12/04 00:46:05;;;;;;;0.77;0.50;;;;;;;;;;5093892;28;20367;-61
2022/12/04 00:48:32;;;;;;;1.37;0.63;;;;;;;;;;5094606;28;20031;-61
2022/12/04 00:51:06;;;;;;;0.40;0.30;;;;;;;;;;5094293;28;20035;-61
2022/12/04 00:53:33;;;;;;;4.73;0.60;;;;;;;;;;5094463;28;20028;-63
2022/12/04 00:56:03;;;;;;;1.73;1.17;;;;;;;;;;5089667;28;20161;-61
2022/12/04 00:58:30;;;;;;;3.67;1.47;;;;;;;;;;5088372;28;20032;-61
2022/12/04 01:01:04;;;;;;;2.43;1.57;;;;;;;;;;5088521;28;20151;-61
2022/12/04 01:03:31;;;;;;;2.92;1.55;;;;;;;;;;5088328;28;20024;-61
2022/12/04 01:06:01;;;;;;;2.40;1.63;;;;;;;;;;5092463;28;20016;-61
2022/12/04 01:08:28;;;;;;;2.03;1.13;;;;;;;;;;5093962;28;20028;-61
2022/12/04 01:10:55;;;;;;;2.27;1.40;;;;;;;;;;5093847;28;20470;-61
2022/12/04 01:13:22;;;;;;;1.47;0.97;;;;;;;;;;5093357;28;20424;-61
2022/12/04 01:15:49;;;;;;;1.70;0.80;;;;;;;;;;5094058;28;20111;-61
2022/12/04 01:18:16;;;;;;;2.43;1.33;;;;;;;;;;5089286;28;20032;-61
2022/12/04 01:20:52;;;;;;;1.73;1.07;;;;;;;;;;5088580;28;20390;-61
2022/12/04 01:23:19;;;;;;;2.27;1.60;;;;;;;;;;5088047;28;20107;-61
2022/12/04 01:25:56;;;;;;;1.03;0.90;;;;;;;;;;5087703;28;20032;-60
2022/12/04 01:28:23;;;;;;;0.93;0.77;;;;;;;;;;5092811;28;20474;-60
2022/12/04 01:31:00;;;;;;;1.67;1.13;;;;;;;;;;5093201;28;20047;-61
2022/12/04 01:33:27;;;;;;;0.57;0.50;;;;;;;;;;5092525;28;20082;-62
2022/12/04 01:35:57;;;;;;;1.83;1.10;;;;;;;;;;5093606;28;20027;-61
2022/12/04 01:38:24;;;;;;;2.70;1.10;;;;;;;;;;5093169;28;20028;-61
2022/12/04 01:40:51;;;;;;;2.53;1.03;;;;;;;;;;5087945;28;20082;-61
2022/12/04 01:43:17;;;;;;;2.67;1.30;;;;;;;;;;5087628;28;20035;-61
2022/12/04 01:45:46;;;;;;;1.33;1.00;;;;;;;;;;5087757;28;20488;-62
2022/12/04 01:48:19;;;;;;;1.00;0.50;;;;;;;;;;5087722;28;20493;-61
2022/12/04 01:50:46;;;;;;;1.37;0.60;;;;;;;;;;5092523;28;20036;-61
2022/12/04 01:53:12;;;;;;;1.47;0.80;;;;;;;;;;5092807;28;20028;-61
2022/12/04 01:55:39;;;;;;;0.63;0.37;;;;;;;;;;5093590;28;20020;-61
2022/12/04 01:58:09;;;;;;;0.33;0.30;;;;;;;;;;5093043;28;20020;-61
2022/12/04 02:00:35;;;;;;;2.00;0.87;;;;;;;;;;5092760;28;20031;-61
2022/12/04 02:03:02;;;;;;;0.40;0.33;;;;;;;;;;5087476;28;20032;-60
2022/12/04 02:05:29;;;;;;;0.70;0.47;;;;;;;;;;5087223;28;20059;-61
2022/12/04 02:07:57;;;;;;;1.27;0.97;;;;;;;;;;5087394;28;20032;-61
2022/12/04 02:10:33;;;;;;;3.23;1.17;;;;;;;;;;5087614;28;20044;-61
2022/12/04 02:13:35;;;;;;;1.63;1.00;;;;;;;;;;5091834;28;20076;-61
2022/12/04 02:16:07;;;;;;;0.30;0.30;;;;;;;;;;4991388;28;20023;-61
2022/12/04 02:18:37;;;;;;;0.83;0.43;;;;;;;;;;5077014;28;20066;-60
2022/12/04 02:21:08;;;;;;;1.33;0.60;;;;;;;;;;5092606;28;20028;-60
2022/12/04 02:23:54;;;;;;;1.00;0.70;;;;;;;;;;5091433;28;20043;-60
2022/12/04 02:26:27;;;;;;;0.33;0.30;;;;;;;;;;5087162;28;20084;-61
2022/12/04 02:28:56;;;;;;;1.40;0.23;;;;;;;;;;5086800;28;20081;-61
2022/12/04 02:31:28;;;;;;;3.13;0.80;;;;;;;;;;5086924;28;20063;-60
2022/12/04 02:33:59;;;;;;;1.63;0.70;;;;;;;;;;5088678;28;20035;-60
2022/12/04 02:36:29;;;;;;;4.47;1.00;;;;;;;;;;5092295;28;20081;-60
2022/12/04 02:39:03;;;;;;;4.63;0.47;;;;;;;;;;5092054;28;20359;-61
2022/12/04 02:41:39;;;;;;;1.42;0.45;;;;;;;;;;5085988;28;20023;-61
2022/12/04 02:44:12;;;;;;;0.53;0.40;;;;;;;;;;5078552;28;20024;-61
2022/12/04 02:46:40;;;;;;;1.67;0.60;;;;;;;;;;5081503;28;20474;-61
2022/12/04 02:49:10;;;;;;;2.60;0.93;;;;;;;;;;5087025;28;20024;-60
2022/12/04 02:51:38;;;;;;;1.80;0.80;;;;;;;;;;5084722;28;20036;-60
2022/12/04 02:54:21;;;;;;;1.80;0.53;;;;;;;;;;5086176;28;20020;-61
2022/12/04 02:56:50;;;;;;;0.63;0.40;;;;;;;;;;5079358;28;20020;-61
2022/12/04 02:59:20;;;;;;;0.97;0.80;;;;;;;;;;5087211;28;20081;-61
2022/12/04 03:01:51;;;;;;;1.43;0.80;;;;;;;;;;5083861;28;20027;-61
2022/12/04 03:04:20;;;;;;;0.40;0.30;;;;;;;;;;5086962;28;20024;-61
2022/12/04 03:06:56;;;;;;;2.43;0.97;;;;;;;;;;5073175;28;20099;-61
2022/12/04 03:09:58;;;;;;;1.27;0.60;;;;;;;;;;5083119;28;20024;-61
2022/12/04 03:12:30;;;;;;;3.00;0.93;;;;;;;;;;4984769;28;20045;-60
2022/12/04 03:15:00;;;;;;;0.80;0.40;;;;;;;;;;5053824;28;20032;-61
2022/12/04 03:17:36;;;;;;;2.23;0.73;;;;;;;;;;5086055;28;20363;-60
2022/12/04 03:20:08;;;;;;;1.97;0.93;;;;;;;;;;5073398;28;20020;-60
2022/12/04 03:22:37;;;;;;;1.37;0.87;;;;;;;;;;5077777;28;20103;-61
2022/12/04 03:25:04;;;;;;;3.50;0.93;;;;;;;;;;5082630;28;20039;-60
2022/12/04 03:27:49;;;;;;;3.37;0.90;;;;;;;;;;5091423;28;20020;-61
2022/12/04 03:30:18;;;;;;;1.05;0.65;;;;;;;;;;5089573;28;20117;-61
2022/12/04 03:32:44;;;;;;;2.63;0.90;;;;;;;;;;5086591;28;20386;-61
2022/12/04 03:35:14;;;;;;;1.23;0.83;;;;;;;;;;5085344;28;20032;-61
2022/12/04 03:37:47;;;;;;;4.03;1.00;;;;;;;;;;5086696;28;20028;-61
2022/12/04 03:40:13;;;;;;;0.80;0.73;;;;;;;;;;5086192;28;20035;-60
2022/12/04 03:42:43;;;;;;;2.40;0.60;;;;;;;;;;5083909;28;20024;-61
2022/12/04 03:45:13;;;;;;;0.67;0.57;;;;;;;;;;5073931;28;20020;-63
2022/12/04 03:47:43;;;;;;;1.70;1.00;;;;;;;;;;5089107;28;20031;-61
2022/12/04 03:50:17;;;;;;;1.20;0.90;;;;;;;;;;5084619;28;20119;-62
2022/12/04 03:52:58;;;;;;;1.52;1.05;;;;;;;;;;5080988;28;20024;-60
2022/12/04 03:55:28;;;;;;;1.90;1.30;;;;;;;;;;5083970;28;20051;-60
2022/12/04 03:57:59;;;;;;;1.90;1.30;;;;;;;;;;5088402;28;20028;-60
2022/12/04 04:00:27;;;;;;;0.60;0.60;;;;;;;;;;5080003;28;20094;-63
2022/12/04 04:03:13;;;;;;;1.80;1.03;;;;;;;;;;5084861;28;20028;-60
2022/12/04 04:05:43;;;;;;;7.20;1.57;;;;;;;;;;5061885;28;20033;-61
2022/12/04 04:08:28;;;;;;;1.47;0.80;;;;;;;;;;5090231;28;20086;-60
2022/12/04 04:11:02;;;;;;;1.10;0.95;;;;;;;;;;5089917;28;20115;-61
2022/12/04 04:24:48;;;;;;;0.70;0.70;;;;;;;;;;5070165;28;20061;-59
2022/12/04 04:27:15;;;;;;;0.20;0.20;;;;;;;;;;5087678;28;20024;-60
2022/12/04 04:29:43;;;;;;;0.90;0.53;;;;;;;;;;5087220;28;20021;-60
2022/12/04 04:32:14;;;;;;;0.60;0.50;;;;;;;;;;5091570;28;20034;-60
2022/12/04 04:34:43;;;;;;;0.20;0.20;;;;;;;;;;5087225;28;20029;-60
2022/12/04 04:37:16;;;;;;;0.70;0.37;;;;;;;;;;5086422;28;20059;-59
2022/12/04 04:40:15;;;;;;;0.90;0.60;;;;;;;;;;5073179;28;20036;-60
2022/12/04 04:42:42;;;;;;;2.90;0.80;;;;;;;;;;5035612;28;20407;-59
2022/12/04 04:45:13;;;;;;;0.90;0.83;;;;;;;;;;5079744;28;20032;-60
2022/12/04 04:47:42;;;;;;;0.63;0.47;;;;;;;;;;5090744;28;20031;-60
2022/12/04 04:50:10;;;;;;;0.37;0.37;;;;;;;;;;5094670;28;20111;-59
2022/12/04 04:52:38;;;;;;;0.70;0.50;;;;;;;;;;5091739;28;20464;-60
2022/12/04 04:55:08;;;;;;;1.93;0.97;;;;;;;;;;5074586;28;20031;-60
2022/12/04 04:57:36;;;;;;;2.00;1.03;;;;;;;;;;5076634;28;20040;-60
2022/12/04 05:00:07;;;;;;;1.93;0.80;;;;;;;;;;5071590;28;20378;-60
2022/12/04 05:02:34;;;;;;;1.43;0.80;;;;;;;;;;5087433;28;20428;-60
2022/12/04 05:05:01;;;;;;;1.07;0.97;;;;;;;;;;5089251;28;20055;-59
2022/12/04 05:07:27;;;;;;;0.80;0.60;;;;;;;;;;5088486;28;20031;-60
2022/12/04 05:09:54;;;;;;;2.63;1.30;;;;;;;;;;5086986;28;20024;-59
2022/12/04 05:12:21;;;;;;;2.20;1.30;;;;;;;;;;5094400;28;20032;-61
2022/12/04 05:14:48;;;;;;;1.90;1.07;;;;;;;;;;5091972;28;20035;-60
2022/12/04 05:17:14;;;;;;;1.50;0.80;;;;;;;;;;5094012;28;20052;-60
2022/12/04 05:19:53;;;;;;;1.27;0.80;;;;;;;;;;5093972;28;20024;-60
2022/12/04 05:22:21;;;;;;;5.30;0.73;;;;;;;;;;5091517;28;20142;-59
2022/12/04 05:24:48;;;;;;;2.53;0.80;;;;;;;;;;5081019;28;20360;-59
2022/12/04 05:27:15;;;;;;;1.67;1.00;;;;;;;;;;5076613;28;20371;-60
2022/12/04 05:29:41;;;;;;;0.73;0.60;;;;;;;;;;5072934;28;20017;-59
2022/12/04 05:32:08;;;;;;;0.50;0.43;;;;;;;;;;5070336;28;20142;-60
2022/12/04 05:34:35;;;;;;;0.57;0.50;;;;;;;;;;5090010;28;20031;-60
2022/12/04 05:37:01;;;;;;;1.30;0.93;;;;;;;;;;5073645;28;20028;-59
2022/12/04 05:39:28;;;;;;;1.33;1.20;;;;;;;;;;5073729;28;20521;-59
2022/12/04 05:41:54;;;;;;;1.63;1.00;;;;;;;;;;5073408;28;20028;-59
2022/12/04 05:44:21;;;;;;;2.63;1.60;;;;;;;;;;5070833;28;20023;-59
2022/12/04 05:46:48;;;;;;;1.07;0.63;;;;;;;;;;5068213;28;20069;-60
2022/12/04 05:49:15;;;;;;;1.10;0.70;;;;;;;;;;5068102;28;20547;-59
2022/12/04 05:51:41;;;;;;;1.47;0.90;;;;;;;;;;5068045;28;20028;-59
2022/12/04 05:54:08;;;;;;;2.27;1.03;;;;;;;;;;5078431;28;20382;-60
2022/12/04 05:56:35;;;;;;;0.53;0.50;;;;;;;;;;5091216;28;20031;-59
2022/12/04 05:59:02;;;;;;;1.50;1.03;;;;;;;;;;5093155;28;20056;-59
2022/12/04 06:01:31;;;;;;;0.73;0.33;;;;;;;;;;5092750;28;20106;-60
2022/12/04 06:03:58;;;;;;;1.57;1.20;;;;;;;;;;5091462;28;20012;-59
2022/12/04 06:06:25;;;;;;;1.03;0.67;;;;;;;;;;5086241;28;20028;-60
2022/12/04 06:08:56;;;;;;;3.20;1.00;;;;;;;;;;5086987;28;20050;-60
2022/12/04 06:11:24;;;;;;;1.03;0.80;;;;;;;;;;5079085;28;20110;-59
2022/12/04 06:13:51;;;;;;;1.27;0.87;;;;;;;;;;5077927;28;20024;-59
2022/12/04 06:16:21;;;;;;;1.00;0.80;;;;;;;;;;5078115;28;20028;-59
2022/12/04 06:18:49;;;;;;;3.13;1.13;;;;;;;;;;5085021;28;20031;-59
2022/12/04 06:21:16;;;;;;;2.43;1.47;;;;;;;;;;5074475;28;20491;-59
2022/12/04 06:23:43;;;;;;;1.47;0.97;;;;;;;;;;5076873;28;20471;-59
2022/12/04 06:26:09;;;;;;;1.93;0.90;;;;;;;;;;5079344;28;20409;-59
2022/12/04 06:28:36;;;;;;;0.50;0.47;;;;;;;;;;5091300;28;20056;-59
2022/12/04 06:31:07;;;;;;;1.83;1.30;;;;;;;;;;5087051;28;20073;-60
2022/12/04 06:33:34;;;;;;;1.33;1.03;;;;;;;;;;5072053;28;20115;-59
2022/12/04 06:36:02;;;;;;;4.47;1.60;;;;;;;;;;5087275;28;20362;-60
2022/12/04 06:38:29;;;;;;;1.27;1.00;;;;;;;;;;5075499;28;20051;-59
2022/12/04 06:40:56;;;;;;;2.03;1.33;;;;;;;;;;5090072;28;20036;-60
2022/12/04 06:43:23;;;;;;;0.97;0.80;;;;;;;;;;5091080;28;20470;-59
2022/12/04 06:45:59;;;;;;;27.90;2.23;;;;;;;;;;5091355;28;20103;-60
2022/12/04 06:48:27;;;;;;;3.33;1.80;;;;;;;;;;5092028;28;20318;-59
2022/12/04 06:51:01;;;;;;;2.97;1.27;;;;;;;;;;5090351;28;20039;-59
2022/12/04 06:53:29;;;;;;;3.33;1.17;;;;;;;;;;5085352;28;20035;-59
2022/12/04 06:55:57;;;;;;;1.27;1.17;;;;;;;;;;5087042;28;20032;-59
2022/12/04 06:58:24;;;;;;;1.67;1.20;;;;;;;;;;5086215;28;20086;-59
2022/12/04 07:00:50;;;;;;;0.60;0.60;;;;;;;;;;5087590;28;20501;-59
2022/12/04 07:03:20;;;;;;;1.13;0.70;;;;;;;;;;5073224;28;20067;-59
2022/12/04 07:05:46;;;;;;;0.70;0.60;;;;;;;;;;5092515;28;20124;-59
2022/12/04 07:08:13;;;;;;;1.27;0.90;;;;;;;;;;5091998;28;20028;-59
2022/12/04 07:10:40;;;;;;;0.43;0.43;;;;;;;;;;5081248;28;20098;-59
2022/12/04 07:13:06;;;;;;;0.70;0.67;;;;;;;;;;5084688;28;20546;-59
2022/12/04 07:15:34;;;;;;;1.13;1.03;;;;;;;;;;5086118;28;20382;-59
2022/12/04 07:18:01;;;;;;;2.17;1.30;;;;;;;;;;5086385;28;20554;-59
2022/12/04 07:20:27;;;;;;;0.97;0.70;;;;;;;;;;5086704;28;20375;-59
2022/12/04 07:22:54;;;;;;;0.80;0.63;;;;;;;;;;5087036;28;20381;-59
2022/12/04 07:25:21;;;;;;;1.73;1.13;;;;;;;;;;5089640;28;20067;-59
2022/12/04 07:27:47;;;;;;;1.40;1.27;;;;;;;;;;5071612;28;20029;-60
2022/12/04 07:30:14;;;;;;;1.00;0.83;;;;;;;;;;5071695;28;20578;-59
2022/12/04 07:32:41;;;;;;;0.83;0.80;;;;;;;;;;5073831;28;20084;-60
2022/12/04 07:35:08;;;;;;;1.20;0.97;;;;;;;;;;5090701;28;20031;-59
2022/12/04 07:37:37;;;;;;;1.47;0.97;;;;;;;;;;5090568;28;20016;-59
2022/12/04 07:40:04;;;;;;;2.60;1.33;;;;;;;;;;5070464;28;20032;-60
2022/12/04 07:42:31;;;;;;;2.53;1.53;;;;;;;;;;5070272;28;20360;-59
2022/12/04 07:44:57;;;;;;;2.73;1.93;;;;;;;;;;5087393;28;20099;-59
2022/12/04 07:47:24;;;;;;;1.90;1.57;;;;;;;;;;5095181;28;20055;-59
2022/12/04 07:49:51;;;;;;;1.90;1.37;;;;;;;;;;5078951;28;20060;-59
2022/12/04 07:52:17;;;;;;;1.40;1.20;;;;;;;;;;5075676;28;20085;-59
2022/12/04 07:54:44;;;;;;;3.37;2.53;;;;;;;;;;5088402;28;20024;-59
2022/12/04 07:57:11;;;;;;;7.47;2.70;;;;;;;;;;5091972;28;20387;-59
2022/12/04 07:59:38;;;;;;;2.70;2.17;;;;;;;;;;5069886;28;20028;-60
2022/12/04 08:02:05;;;;;;;2.33;1.90;;;;;;;;;;5080275;28;20035;-59
2022/12/04 08:04:32;;;;;;;2.07;1.87;;;;;;;;;;5078393;28;20361;-60
2022/12/04 08:06:59;;;;;;;2.47;1.67;;;;;;;;;;5069819;28;20187;-59
2022/12/04 08:09:25;;;;;;;1.70;1.50;;;;;;;;;;5075033;28;20225;-59
2022/12/04 08:11:52;;;;;;;1.43;1.10;;;;;;;;;;5075152;28;20099;-59
2022/12/04 08:14:19;;;;;;;2.03;1.63;;;;;;;;;;5087324;28;20039;-60
2022/12/04 08:16:45;;;;;;;2.43;2.00;;;;;;;;;;5078819;28;20020;-60
2022/12/04 08:19:12;;;;;;;2.27;2.03;;;;;;;;;;5074453;28;20025;-59
2022/12/04 08:21:38;;;;;;;2.80;2.40;;;;;;;;;;5069331;28;20024;-59
2022/12/04 08:24:08;;;;;;;2.93;2.27;;;;;;;;;;5069433;28;20531;-60
2022/12/04 08:26:35;;;;;;;3.40;2.20;;;;;;;;;;5069355;28;20429;-59
2022/12/04 08:29:02;;;;;;;2.20;1.63;;;;;;;;;;5075251;28;20024;-59
2022/12/04 08:31:29;;;;;;;1.73;1.53;;;;;;;;;;5094205;28;20048;-59
2022/12/04 08:33:57;;;;;;;2.90;2.37;;;;;;;;;;5088871;28;20391;-59
2022/12/04 08:36:24;;;;;;;2.20;1.90;;;;;;;;;;5074561;28;20052;-59
2022/12/04 08:38:51;;;;;;;1.77;1.60;;;;;;;;;;5074645;28;20569;-59
2022/12/04 08:41:20;;;;;;;1.90;1.67;;;;;;;;;;5074721;28;20063;-59
2022/12/04 08:43:46;;;;;;;2.67;1.67;;;;;;;;;;5068603;28;20037;-59
2022/12/04 08:46:14;;;;;;;3.97;1.93;;;;;;;;;;5073849;28;20050;-59
2022/12/04 08:48:44;;;;;;;3.43;1.93;;;;;;;;;;5079900;28;20032;-59
2022/12/04 08:51:13;;;;;;;2.43;2.07;;;;;;;;;;5068504;28;20037;-59
2022/12/04 08:53:39;;;;;;;3.50;2.37;;;;;;;;;;5073880;28;20703;-59
2022/12/04 08:56:06;;;;;;;2.90;2.60;;;;;;;;;;5074618;28;20059;-58
2022/12/04 08:58:33;;;;;;;2.20;2.00;;;;;;;;;;5074501;28;20028;-59
2022/12/04 09:01:06;;;;;;;2.07;1.67;;;;;;;;;;5074257;28;20761;-59
2022/12/04 09:03:32;;;;;;;2.63;2.00;;;;;;;;;;5087884;28;20470;-58
2022/12/04 09:06:00;;;;;;;1.83;1.50;;;;;;;;;;5088494;28;20062;-59
2022/12/04 09:08:27;;;;;;;3.30;2.40;;;;;;;;;;5088291;28;20517;-59
2022/12/04 09:10:54;;;;;;;2.60;1.90;;;;;;;;;;5088341;28;20036;-59
2022/12/04 09:13:20;;;;;;;4.07;2.20;;;;;;;;;;5082301;28;20016;-59
2022/12/04 09:15:47;;;;;;;2.27;2.00;;;;;;;;;;5078613;28;20020;-58
2022/12/04 09:18:13;;;;;;;2.87;2.57;;;;;;;;;;5080413;28;20070;-59
2022/12/04 09:20:40;;;;;;;3.23;2.20;;;;;;;;;;5078747;28;20031;-59
2022/12/04 09:23:07;;;;;;;3.30;2.00;;;;;;;;;;5093502;28;20035;-58
2022/12/04 09:25:37;;;;;;;3.23;2.47;;;;;;;;;;5086103;28;20056;-59
2022/12/04 09:28:04;;;;;;;2.80;2.03;;;;;;;;;;5068382;28;20452;-59
2022/12/04 09:30:31;;;;;;;2.00;1.20;;;;;;;;;;5068091;28;20043;-59
2022/12/04 09:32:58;;;;;;;3.60;2.27;;;;;;;;;;5068212;28;20410;-59
2022/12/04 09:35:24;;;;;;;3.00;2.23;;;;;;;;;;5067624;28;20507;-59
2022/12/04 09:37:51;;;;;;;2.00;1.73;;;;;;;;;;5072558;28;20395;-59
2022/12/04 09:40:26;;;;;;;2.57;1.73;;;;;;;;;;5073623;28;20467;-59
2022/12/04 09:43:03;;;;;;;2.92;1.70;;;;;;;;;;5073398;28;20031;-58
2022/12/04 09:45:42;;;;;;;1.77;1.50;;;;;;;;;;5073465;28;20044;-59
2022/12/04 09:48:11;;;;;;;3.27;2.17;;;;;;;;;;5073157;28;20025;-59
2022/12/04 09:50:40;;;;;;;3.40;2.57;;;;;;;;;;5069692;28;20036;-59
2022/12/04 09:53:25;;;;;;;1.67;1.37;;;;;;;;;;5085839;28;20031;-59
2022/12/04 09:55:59;;;;;;;3.60;1.88;;;;;;;;;;5073741;28;20025;-60
2022/12/04 09:58:32;;;;;;;4.17;2.47;;;;;;;;;;5068068;28;20032;-59
2022/12/04 10:01:00;;;;;;;2.37;2.03;;;;;;;;;;5072993;28;20082;-58
2022/12/04 10:03:30;;;;;;;2.97;2.33;;;;;;;;;;5076492;28;20048;-59
2022/12/04 10:06:02;;;;;;;2.93;2.20;;;;;;;;;;5093440;28;20475;-59
2022/12/04 10:08:31;;;;;;;1.97;1.77;;;;;;;;;;5093024;28;20028;-59
2022/12/04 10:11:04;;;;;;;5.43;2.50;;;;;;;;;;5091451;28;20592;-60
2022/12/04 10:13:40;;;;;;;14.73;2.20;;;;;;;;;;5082949;28;20027;-59
2022/12/04 10:16:17;;;;;;;2.90;2.13;;;;;;;;;;5067246;28;20028;-60
2022/12/04 10:19:02;;;;;;;2.83;2.07;;;;;;;;;;5067187;28;20039;-59
2022/12/04 10:21:51;;;;;;;2.17;1.98;;;;;;;;;;5076367;28;20021;-59
2022/12/04 10:24:18;;;;;;;2.80;2.50;;;;;;;;;;5081462;28;20031;-59
2022/12/04 10:26:46;;;;;;;2.67;2.23;;;;;;;;;;5088388;28;20055;-59
2022/12/04 10:29:18;;;;;;;3.07;2.37;;;;;;;;;;5092613;28;20650;-59
2022/12/04 10:31:46;;;;;;;4.53;2.13;;;;;;;;;;5092634;28;20157;-59
2022/12/04 10:34:16;;;;;;;4.30;2.57;;;;;;;;;;5088245;28;20027;-60
2022/12/04 10:36:45;;;;;;;7.87;2.00;;;;;;;;;;5087045;28;20132;-60
2022/12/04 10:39:20;;;;;;;4.03;2.97;;;;;;;;;;5066782;28;20020;-59
2022/12/04 10:41:51;;;;;;;3.42;2.70;;;;;;;;;;5066711;28;20032;-59
2022/12/04 10:44:19;;;;;;;2.93;2.23;;;;;;;;;;5070716;28;20111;-59
2022/12/04 10:46:45;;;;;;;5.97;3.30;;;;;;;;;;5072504;28;20078;-59
2022/12/04 10:49:20;;;;;;;2.43;2.03;;;;;;;;;;5071944;28;20027;-59
2022/12/04 10:51:46;;;;;;;4.10;3.40;;;;;;;;;;5081353;28;20028;-60
2022/12/04 10:54:20;;;;;;;3.03;2.40;;;;;;;;;;5074166;28;20083;-59
2022/12/04 10:56:51;;;;;;;4.03;2.87;;;;;;;;;;5067585;28;20579;-59
2022/12/04 10:59:17;;;;;;;3.13;2.53;;;;;;;;;;5070547;28;20019;-59
2022/12/04 11:01:44;;;;;;;4.10;3.10;;;;;;;;;;5078875;28;20043;-59
2022/12/04 11:04:29;;;;;;;2.83;2.33;;;;;;;;;;5066552;28;20028;-59
2022/12/04 11:07:03;;;;;;;5.35;3.25;;;;;;;;;;5071305;28;20107;-59
2022/12/04 11:09:31;;;;;;;2.40;1.90;;;;;;;;;;5078442;28;20040;-59
2022/12/04 11:12:19;;;;;;;4.37;2.37;;;;;;;;;;5071648;28;20364;-58
2022/12/04 11:14:46;;;;;;;3.10;2.60;;;;;;;;;;5072058;28;20352;-59
2022/12/04 11:17:17;;;;;;;4.10;2.77;;;;;;;;;;5091366;28;20024;-59
2022/12/04 11:19:44;;;;;;;3.07;2.47;;;;;;;;;;5086399;28;20024;-58
2022/12/04 11:22:19;;;;;;;5.60;2.50;;;;;;;;;;5076878;28;20033;-59
2022/12/04 11:24:59;;;;;;;5.47;2.53;;;;;;;;;;5068638;28;20483;-59
2022/12/04 11:27:30;;;;;;;2.00;1.80;;;;;;;;;;5087381;28;20035;-60
2022/12/04 11:29:57;;;;;;;2.07;1.83;;;;;;;;;;5079028;28;20090;-58
2022/12/04 11:32:33;;;;;;;3.23;2.20;;;;;;;;;;5071354;28;20032;-59
2022/12/04 11:35:04;;;;;;;2.77;2.30;;;;;;;;;;5071844;28;20028;-59
2022/12/04 11:37:32;;;;;;;6.00;1.97;;;;;;;;;;5071929;28;20032;-58
2022/12/04 11:40:00;;;;;;;2.20;2.00;;;;;;;;;;5069575;28;20491;-59
2022/12/04 11:42:30;;;;;;;2.03;1.73;;;;;;;;;;5065942;28;20029;-59
2022/12/04 11:44:58;;;;;;;2.03;1.73;;;;;;;;;;5065736;28;20056;-60
2022/12/04 11:47:28;;;;;;;3.20;2.33;;;;;;;;;;5066332;28;20024;-59
2022/12/04 11:50:11;;;;;;;2.70;1.97;;;;;;;;;;5067940;28;20028;-58
2022/12/04 11:52:45;;;;;;;2.63;2.10;;;;;;;;;;5079535;28;20062;-61
2022/12/04 11:55:16;;;;;;;3.20;2.37;;;;;;;;;;5085733;28;20016;-59
2022/12/04 11:58:06;;;;;;;1.93;1.70;;;;;;;;;;5071610;28;20024;-59
2022/12/04 12:00:35;;;;;;;2.67;2.13;;;;;;;;;;5061068;28;20078;-59
2022/12/04 12:03:06;;;;;;;2.97;2.10;;;;;;;;;;5085059;28;20028;-59
2022/12/04 12:05:41;;;;;;;2.47;2.00;;;;;;;;;;5086317;28;20111;-59
2022/12/04 12:08:20;;;;;;;2.53;2.00;;;;;;;;;;5083548;28;20029;-59
2022/12/04 12:10:46;;;;;;;2.57;2.17;;;;;;;;;;5065826;28;20082;-59
2022/12/04 12:13:32;;;;;;;3.93;2.00;;;;;;;;;;5072838;28;20436;-58
2022/12/04 12:16:09;;;;;;;4.38;2.10;;;;;;;;;;5090941;28;20028;-59
2022/12/04 12:18:45;;;;;;;2.20;2.00;;;;;;;;;;5093019;28;20028;-59
2022/12/04 12:21:26;;;;;;;2.27;1.73;;;;;;;;;;5074702;28;20039;-59
2022/12/04 12:23:55;;;;;;;2.77;2.43;;;;;;;;;;5086109;28;20056;-59
2022/12/04 12:26:24;;;;;;;2.70;2.43;;;;;;;;;;5073906;28;20497;-59
2022/12/04 12:29:14;;;;;;;3.10;2.27;;;;;;;;;;5084202;28;20429;-59
2022/12/04 12:31:59;;;;;;;3.10;2.23;;;;;;;;;;5069375;28;20044;-59
2022/12/04 12:34:35;;;;;;;3.05;2.20;;;;;;;;;;5080582;28;20069;-59
2022/12/04 12:37:09;;;;;;;28.30;2.93;;;;;;;;;;5074696;28;20097;-59
2022/12/04 12:39:39;;;;;;;2.53;2.07;;;;;;;;;;5074712;28;20103;-59
2022/12/04 12:42:07;;;;;;;3.93;3.10;;;;;;;;;;5074691;28;20452;-60
2022/12/04 12:44:39;;;;;;;4.13;2.43;;;;;;;;;;5074641;28;20032;-59
2022/12/04 12:47:13;;;;;;;6.50;2.70;;;;;;;;;;5090416;28;20036;-59
2022/12/04 12:49:58;;;;;;;3.00;2.13;;;;;;;;;;5073394;28;20070;-59
2022/12/04 12:52:33;;;;;;;2.67;1.75;;;;;;;;;;5068999;28;20033;-59
2022/12/04 12:55:04;;;;;;;3.73;2.30;;;;;;;;;;5072378;28;20109;-59
2022/12/04 12:57:38;;;;;;;2.97;2.27;;;;;;;;;;5091978;28;20041;-59
2022/12/04 13:00:16;;;;;;;2.30;1.73;;;;;;;;;;5094311;28;20147;-59
2022/12/04 13:03:01;;;;;;;4.97;2.57;;;;;;;;;;5093632;28;20158;-59
2022/12/04 13:05:31;;;;;;;4.53;2.38;;;;;;;;;;5074092;28;20383;-59
2022/12/04 13:08:26;;;;;;;3.50;2.63;;;;;;;;;;5073931;28;20024;-59
2022/12/04 13:11:05;;;;;;;2.42;2.15;;;;;;;;;;5051278;28;20044;-59
2022/12/04 13:13:36;;;;;;;3.77;3.13;;;;;;;;;;5068241;28;20095;-59
2022/12/04 13:32:12;;;;;;;2.70;1.97;;;;;;;;;;5149265;27;20135;-58
2022/12/04 13:34:57;;;;;;;3.17;2.43;;;;;;;;;;5065599;27;2105469;-58
2022/12/04 13:37:45;;;;;;;5.13;2.90;;;;;;;;;;5124734;28;20065;-57
2022/12/04 13:40:18;;;;;;;4.03;2.60;;;;;;;;;;5124301;28;20455;-58
2022/12/04 13:42:45;;;;;;;3.50;2.23;;;;;;;;;;5125336;28;20023;-57
2022/12/04 13:45:31;;;;;;;2.90;2.33;;;;;;;;;;5129912;28;20124;-58
2022/12/04 13:47:59;;;;;;;2.77;2.07;;;;;;;;;;5130158;28;20034;-58
2022/12/04 13:50:36;;;;;;;2.03;1.80;;;;;;;;;;5129791;28;20034;-58
2022/12/04 13:53:02;;;;;;;3.73;2.37;;;;;;;;;;5106833;28;20035;-58
2022/12/04 13:55:29;;;;;;;3.63;2.33;;;;;;;;;;5106134;28;20427;-58
2022/12/04 13:57:57;;;;;;;1.60;1.27;;;;;;;;;;5108036;28;21937;-58
2022/12/04 14:00:26;;;;;;;2.47;1.50;;;;;;;;;;5103047;28;20028;-58
2022/12/04 14:02:56;;;;;;;4.33;2.07;;;;;;;;;;5124401;28;20015;-58
2022/12/04 14:05:32;;;;;;;3.70;1.83;;;;;;;;;;5107785;28;20047;-57
2022/12/04 14:08:07;;;;;;;2.07;1.60;;;;;;;;;;5109252;28;20051;-58
2022/12/04 14:10:36;;;;;;;3.20;1.63;;;;;;;;;;5108789;28;20023;-58
2022/12/04 14:13:05;;;;;;;1.97;1.40;;;;;;;;;;5092583;28;20020;-58
2022/12/04 14:15:34;;;;;;;11.33;1.67;;;;;;;;;;5107840;28;20019;-58
2022/12/04 14:18:01;;;;;;;4.17;1.70;;;;;;;;;;5084748;28;20475;-59
2022/12/04 14:20:29;;;;;;;2.10;1.83;;;;;;;;;;5104420;28;20405;-57
2022/12/04 14:23:06;;;;;;;1.23;1.13;;;;;;;;;;5124030;28;20475;-59
2022/12/04 14:25:38;;;;;;;1.90;1.47;;;;;;;;;;5086283;28;20028;-59
2022/12/04 14:28:23;;;;;;;2.63;1.60;;;;;;;;;;5090643;28;20015;-58
2022/12/04 14:31:16;;;;;;;2.57;1.53;;;;;;;;;;5087442;28;20482;-58
2022/12/04 14:33:51;;;;;;;1.03;0.90;;;;;;;;;;5074826;28;20115;-57
2022/12/04 14:36:28;;;;;;;0.60;0.60;;;;;;;;;;5094997;28;20051;-59
2022/12/04 14:39:05;;;;;;;1.63;1.17;;;;;;;;;;5095944;28;20031;-58
2022/12/04 14:41:32;;;;;;;2.33;1.50;;;;;;;;;;5089249;28;20036;-58
2022/12/04 14:43:59;;;;;;;2.30;1.30;;;;;;;;;;5092069;28;20032;-58
2022/12/04 14:46:32;;;;;;;2.30;1.53;;;;;;;;;;5109058;28;20054;-58
2022/12/04 14:49:17;;;;;;;1.10;0.77;;;;;;;;;;5109467;28;20369;-58
2022/12/04 14:51:50;;;;;;;1.92;1.25;;;;;;;;;;5115374;28;20019;-58
2022/12/04 14:54:19;;;;;;;0.90;0.80;;;;;;;;;;5114351;28;20028;-57
2022/12/04 14:56:52;;;;;;;2.30;1.00;;;;;;;;;;5112848;28;20036;-58
2022/12/04 14:59:21;;;;;;;2.20;1.13;;;;;;;;;;5092413;28;20028;-58
2022/12/04 15:01:49;;;;;;;1.20;0.83;;;;;;;;;;5078001;28;20055;-58
2022/12/04 15:04:23;;;;;;;2.03;1.30;;;;;;;;;;5089113;28;20031;-58
2022/12/04 15:06:51;;;;;;;2.25;0.90;;;;;;;;;;5088209;28;20857;-58
2022/12/04 15:12:33;;;;;;;1.37;0.93;;;;;;;;;;5091649;28;20050;-58
2022/12/04 15:15:13;;;;;;;0.95;0.80;;;;;;;;;;5097574;28;20561;-58
2022/12/04 15:17:40;;;;;;;1.10;0.80;;;;;;;;;;5083667;28;20027;-58
2022/12/04 15:20:18;;;;;;;1.80;1.23;;;;;;;;;;5087208;28;20036;-58
2022/12/04 15:22:45;;;;;;;0.50;0.50;;;;;;;;;;5093589;28;20031;-59
2022/12/04 15:25:20;;;;;;;4.90;0.93;;;;;;;;;;5087629;28;20767;-58
2022/12/04 15:27:48;;;;;;;0.32;0.30;;;;;;;;;;5088066;28;20123;-59
2022/12/04 15:30:16;;;;;;;1.27;0.93;;;;;;;;;;5093152;28;20022;-60
2022/12/04 15:32:43;;;;;;;0.83;0.67;;;;;;;;;;5101912;28;20028;-59
2022/12/04 15:35:15;;;;;;;8.07;1.53;;;;;;;;;;5082794;28;20029;-59